createdAt,value
2023-03-02T00:01:55.352Z,101495.66
2023-03-02T00:04:48.420Z,101491.56
2023-03-02T00:07:22.946Z,101484.78
2023-03-02T00:09:52.087Z,101483.06
2023-03-02T00:12:19.859Z,101486.72
2023-03-02T00:14:47.551Z,101491.22
2023-03-02T00:17:15.661Z,101487.69
2023-03-02T00:19:45.089Z,101488.75
2023-03-02T00:22:13.021Z,101498.75
2023-03-02T00:24:41.260Z,101500.03
2023-03-02T00:27:08.897Z,101494.56
2023-03-02T00:29:36.843Z,101500.69
2023-03-02T00:32:09.207Z,101497.47
2023-03-02T00:34:39.216Z,101498.84
2023-03-02T00:37:06.828Z,101497.97
2023-03-02T00:39:34.667Z,101497.00
2023-03-02T00:42:02.277Z,101503.06
2023-03-02T00:44:30.064Z,101502.75
2023-03-02T00:46:57.918Z,101500.72
2023-03-02T00:49:25.960Z,101500.50
2023-03-02T00:51:58.987Z,101504.50
2023-03-02T00:54:26.658Z,101512.44
2023-03-02T00:56:54.506Z,101502.00
2023-03-02T00:59:28.329Z,101502.75
2023-03-02T01:02:21.940Z,101508.69
2023-03-02T01:04:50.792Z,101507.50
2023-03-02T01:07:20.938Z,101508.75
2023-03-02T01:09:48.974Z,101507.47
2023-03-02T01:12:16.642Z,101510.59
2023-03-02T01:14:47.783Z,101502.22
2023-03-02T01:17:15.740Z,101510.19
2023-03-02T01:19:43.501Z,101510.84
2023-03-02T01:22:11.299Z,101509.63
2023-03-02T01:24:43.699Z,101508.72
2023-03-02T01:27:11.391Z,101499.59
2023-03-02T01:29:38.934Z,101502.53
2023-03-02T01:32:06.659Z,101504.38
2023-03-02T01:34:34.353Z,101499.28
2023-03-02T01:37:02.637Z,101508.16
2023-03-02T01:39:30.622Z,101496.97
2023-03-02T01:41:59.402Z,101505.50
2023-03-02T01:44:50.375Z,101501.16
2023-03-02T01:47:25.944Z,101501.09
2023-03-02T01:50:19.344Z,101502.75
2023-03-02T01:52:47.476Z,101497.34
2023-03-02T01:55:17.964Z,101496.66
2023-03-02T01:57:47.187Z,101497.78
2023-03-02T02:00:19.546Z,101497.78
2023-03-02T02:02:47.915Z,101489.28
2023-03-02T02:05:23.636Z,101498.88
2023-03-02T02:07:53.202Z,101503.88
2023-03-02T02:10:22.700Z,101499.97
2023-03-02T02:12:51.503Z,101500.41
2023-03-02T02:15:19.107Z,101504.28
2023-03-02T02:17:46.767Z,101499.91
2023-03-02T02:20:24.266Z,101503.16
2023-03-02T02:22:57.701Z,101501.28
2023-03-02T02:25:40.991Z,101502.78
2023-03-02T02:28:22.500Z,101504.34
2023-03-02T02:30:52.201Z,101503.56
2023-03-02T02:33:21.554Z,101498.41
2023-03-02T02:35:49.174Z,101502.38
2023-03-02T02:38:18.653Z,101495.28
2023-03-02T02:40:54.638Z,101498.81
2023-03-02T02:43:27.218Z,101493.41
2023-03-02T02:45:56.247Z,101498.34
2023-03-02T02:48:27.171Z,101507.66
2023-03-02T02:51:00.683Z,101501.22
2023-03-02T02:53:38.856Z,101504.81
2023-03-02T02:56:07.410Z,101506.69
2023-03-02T02:58:42.291Z,101510.69
2023-03-02T03:01:18.095Z,101509.16
2023-03-02T03:04:06.595Z,101505.00
2023-03-02T03:06:44.686Z,101513.94
2023-03-02T03:09:13.262Z,101515.13
2023-03-02T03:11:55.486Z,101512.81
2023-03-02T03:14:34.674Z,101513.56
2023-03-02T03:17:02.470Z,101511.38
2023-03-02T03:19:31.895Z,101510.81
2023-03-02T03:22:02.127Z,101513.00
2023-03-02T03:24:39.110Z,101512.50
2023-03-02T03:27:07.501Z,101508.88
2023-03-02T03:29:39.329Z,101513.47
2023-03-02T03:32:10.524Z,101513.56
2023-03-02T03:34:41.869Z,101508.97
2023-03-02T03:37:22.371Z,101508.69
2023-03-02T03:39:50.873Z,101507.34
2023-03-02T03:42:19.205Z,101512.72
2023-03-02T03:44:47.589Z,101517.59
2023-03-02T03:47:15.557Z,101511.47
2023-03-02T03:49:43.657Z,101521.88
2023-03-02T03:52:11.731Z,101511.47
2023-03-02T03:54:40.010Z,101510.78
2023-03-02T03:57:11.400Z,101510.03
2023-03-02T03:59:39.597Z,101504.28
2023-03-02T04:02:11.226Z,101502.75
2023-03-02T04:04:42.689Z,101512.44
2023-03-02T04:07:16.944Z,101508.59
2023-03-02T04:09:47.628Z,101508.59
2023-03-02T04:12:22.196Z,101508.97
2023-03-02T04:14:53.248Z,101513.69
2023-03-02T04:17:20.868Z,101503.31
2023-03-02T04:19:53.388Z,101514.50
2023-03-02T04:22:21.523Z,101503.19
2023-03-02T04:24:49.502Z,101513.44
2023-03-02T04:27:17.614Z,101508.56
2023-03-02T04:29:46.617Z,101508.28
2023-03-02T04:32:17.477Z,101513.28
2023-03-02T04:34:49.844Z,101511.63
2023-03-02T04:37:17.518Z,101520.41
2023-03-02T04:39:50.228Z,101515.28
2023-03-02T04:42:21.207Z,101517.13
2023-03-02T04:44:49.067Z,101511.53
2023-03-02T04:47:16.697Z,101513.06
2023-03-02T04:49:44.314Z,101514.00
2023-03-02T04:52:13.331Z,101509.34
2023-03-02T04:54:41.438Z,101507.56
2023-03-02T04:57:10.162Z,101508.03
2023-03-02T04:59:39.732Z,101504.44
2023-03-02T05:02:07.536Z,101500.06
2023-03-02T05:04:38.175Z,101509.56
2023-03-02T05:07:07.030Z,101516.22
2023-03-02T05:09:35.648Z,101515.31
2023-03-02T05:12:03.636Z,101520.22
2023-03-02T05:14:31.545Z,101520.81
2023-03-02T05:16:59.762Z,101528.22
2023-03-02T05:19:27.664Z,101525.69
2023-03-02T05:21:56.930Z,101530.47
2023-03-02T05:24:25.487Z,101530.09
2023-03-02T05:26:54.619Z,101537.28
2023-03-02T05:29:22.432Z,101533.84
2023-03-02T05:31:50.415Z,101538.09
2023-03-02T05:34:18.334Z,101544.00
2023-03-02T05:36:50.032Z,101555.91
2023-03-02T05:39:20.102Z,101547.00
2023-03-02T05:41:47.959Z,101546.78
2023-03-02T05:44:15.739Z,101551.00
2023-03-02T05:46:45.028Z,101545.84
2023-03-02T05:49:13.574Z,101554.00
2023-03-02T05:51:41.347Z,101567.22
2023-03-02T05:54:09.385Z,101564.34
2023-03-02T05:56:37.193Z,101567.00
2023-03-02T05:59:05.026Z,101577.78
2023-03-02T06:01:33.234Z,101581.66
2023-03-02T06:04:01.258Z,101577.88
2023-03-02T06:06:29.549Z,101577.72
2023-03-02T06:08:57.826Z,101588.81
2023-03-02T06:11:25.520Z,101589.16
2023-03-02T06:13:53.595Z,101588.81
2023-03-02T06:16:21.851Z,101584.03
2023-03-02T06:18:50.430Z,101584.47
2023-03-02T06:21:18.946Z,101595.56
2023-03-02T06:23:47.137Z,101589.34
2023-03-02T06:26:14.902Z,101599.44
2023-03-02T06:28:51.988Z,101604.38
2023-03-02T06:31:21.988Z,101610.19
2023-03-02T06:33:49.980Z,101608.75
2023-03-02T06:36:18.793Z,101614.44
2023-03-02T06:38:46.659Z,101608.25
2023-03-02T06:41:14.537Z,101613.09
2023-03-02T06:43:42.288Z,101615.63
2023-03-02T06:46:10.061Z,101615.66
2023-03-02T06:48:38.164Z,101621.69
2023-03-02T06:51:12.828Z,101605.41
2023-03-02T06:53:41.353Z,101614.53
2023-03-02T06:56:13.286Z,101620.41
2023-03-02T06:58:41.866Z,101602.63
2023-03-02T07:04:29.694Z,101609.28
2023-03-02T07:06:57.634Z,101606.59
2023-03-02T07:12:32.756Z,101612.59
2023-03-02T07:15:05.626Z,101618.00
2023-03-02T07:17:35.567Z,101619.09
2023-03-02T07:20:06.208Z,101615.31
2023-03-02T07:22:36.749Z,101617.69
2023-03-02T07:25:11.053Z,101606.09
2023-03-02T07:27:49.839Z,101610.75
2023-03-02T07:30:21.388Z,101612.94
2023-03-02T07:32:49.441Z,101610.81
2023-03-02T07:35:17.669Z,101608.38
2023-03-02T07:37:45.510Z,101621.38
2023-03-02T07:40:13.918Z,101618.06
2023-03-02T07:42:43.075Z,101623.13
2023-03-02T07:45:20.783Z,101636.16
2023-03-02T07:47:48.758Z,101620.59
2023-03-02T07:50:16.852Z,101612.19
2023-03-02T07:52:48.341Z,101610.97
2023-03-02T07:55:21.723Z,101609.16
2023-03-02T07:57:55.115Z,101616.38
2023-03-02T08:00:23.595Z,101618.72
2023-03-02T08:03:01.799Z,101610.72
2023-03-02T08:05:31.338Z,101609.38
2023-03-02T08:08:03.265Z,101590.44
2023-03-02T08:10:38.714Z,101594.22
2023-03-02T08:13:13.457Z,101614.25
2023-03-02T08:15:47.538Z,101604.59
2023-03-02T08:18:16.616Z,101605.38
2023-03-02T08:20:51.300Z,101614.16
2023-03-02T08:23:21.980Z,101594.84
2023-03-02T08:25:53.271Z,101598.13
2023-03-02T08:28:23.312Z,101588.22
2023-03-02T08:31:00.064Z,101584.44
2023-03-02T08:33:28.865Z,101585.28
2023-03-02T08:36:02.096Z,101577.13
2023-03-02T08:38:31.656Z,101564.78
2023-03-02T08:40:59.474Z,101578.81
2023-03-02T08:43:27.356Z,101593.31
2023-03-02T08:45:58.130Z,101604.81
2023-03-02T08:48:31.602Z,101593.88
2023-03-02T08:51:29.200Z,101587.00
2023-03-02T08:54:04.961Z,101600.78
2023-03-02T08:56:35.826Z,101602.41
2023-03-02T08:59:07.031Z,101589.03
2023-03-02T09:01:36.780Z,101586.69
2023-03-02T09:04:08.584Z,101598.19
2023-03-02T09:06:40.960Z,101600.41
2023-03-02T09:09:13.042Z,101592.06
2023-03-02T09:11:58.919Z,101597.09
2023-03-02T09:14:28.316Z,101571.72
2023-03-02T09:17:16.739Z,101570.88
2023-03-02T09:19:56.730Z,101565.38
2023-03-02T09:22:43.003Z,101577.19
2023-03-02T09:25:13.986Z,101550.50
2023-03-02T09:27:48.989Z,101592.66
2023-03-02T09:30:39.046Z,101564.91
2023-03-02T09:33:08.209Z,101564.38
2023-03-02T09:35:40.311Z,101579.56
2023-03-02T09:38:14.276Z,101571.59
2023-03-02T09:41:08.239Z,101576.41
2023-03-02T09:43:40.708Z,101572.38
2023-03-02T09:46:18.485Z,101565.75
2023-03-02T09:49:21.665Z,101589.44
2023-03-02T09:52:08.666Z,101562.22
2023-03-02T09:54:38.238Z,101556.63
2023-03-02T09:57:24.154Z,101571.16
2023-03-02T10:00:20.524Z,101561.50
2023-03-02T10:03:08.188Z,101555.69
2023-03-02T10:05:54.398Z,101575.50
2023-03-02T10:08:27.298Z,101549.50
2023-03-02T10:11:13.490Z,101542.63
2023-03-02T10:13:52.615Z,101530.78
2023-03-02T10:16:30.335Z,101536.91
2023-03-02T10:19:05.604Z,101538.50
2023-03-02T10:21:40.099Z,101531.50
2023-03-02T10:24:41.488Z,101533.38
2023-03-02T10:27:20.864Z,101551.91
2023-03-02T10:30:01.452Z,101557.06
2023-03-02T10:32:52.666Z,101546.22
2023-03-02T10:35:24.040Z,101550.34
2023-03-02T10:37:55.495Z,101537.06
2023-03-02T10:40:33.553Z,101533.16
2023-03-02T10:43:33.614Z,101510.88
2023-03-02T10:46:07.849Z,101532.34
2023-03-02T10:48:51.860Z,101561.94
2023-03-02T10:51:28.551Z,101554.06
2023-03-02T10:54:29.023Z,101548.91
2023-03-02T10:57:18.443Z,101556.06
2023-03-02T10:59:47.464Z,101551.91
2023-03-02T11:02:24.552Z,101543.44
2023-03-02T11:04:59.549Z,101537.47
2023-03-02T11:07:28.968Z,101549.59
2023-03-02T11:13:59.440Z,101565.88
2023-03-02T11:16:35.352Z,101544.28
2023-03-02T11:19:38.257Z,101537.72
2023-03-02T11:22:14.810Z,101520.88
2023-03-02T11:24:52.396Z,101557.41
2023-03-02T11:27:27.477Z,101557.53
2023-03-02T11:30:17.262Z,101550.41
2023-03-02T11:32:55.262Z,101535.28
2023-03-02T11:36:06.810Z,101524.97
2023-03-02T11:38:50.382Z,101525.41
2023-03-02T11:41:27.436Z,101540.91
2023-03-02T11:43:57.001Z,101536.56
2023-03-02T11:46:30.829Z,101546.72
2023-03-02T11:49:07.473Z,101535.97
2023-03-02T11:51:56.672Z,101535.00
2023-03-02T11:54:41.666Z,101534.94
2023-03-02T11:57:19.819Z,101532.78
2023-03-02T11:59:47.680Z,101545.63
2023-03-02T12:02:17.133Z,101541.88
2023-03-02T12:04:49.043Z,101538.88
2023-03-02T12:07:25.858Z,101543.13
2023-03-02T12:10:07.621Z,101551.25
2023-03-02T12:12:44.680Z,101536.13
2023-03-02T12:15:39.726Z,101525.53
2023-03-02T12:18:23.078Z,101546.03
2023-03-02T12:21:17.716Z,101536.63
2023-03-02T12:23:49.095Z,101553.69
2023-03-02T12:26:19.981Z,101537.97
2023-03-02T12:29:10.719Z,101533.25
2023-03-02T12:31:50.757Z,101547.91
2023-03-02T12:34:25.042Z,101538.16
2023-03-02T12:36:59.089Z,101534.16
2023-03-02T12:39:39.190Z,101533.88
2023-03-02T12:42:21.783Z,101545.97
2023-03-02T12:45:07.803Z,101535.84
2023-03-02T12:47:38.399Z,101555.94
2023-03-02T12:50:09.426Z,101568.03
2023-03-02T12:52:40.935Z,101547.75
2023-03-02T12:55:19.527Z,101534.66
2023-03-02T12:57:49.678Z,101518.59
2023-03-02T13:00:22.959Z,101526.69
2023-03-02T13:02:54.971Z,101530.63
2023-03-02T13:05:27.440Z,101530.19
2023-03-02T13:08:01.409Z,101537.28
2023-03-02T13:10:36.294Z,101527.84
2023-03-02T13:13:30.229Z,101507.72
2023-03-02T13:16:11.963Z,101516.56
2023-03-02T13:18:40.807Z,101509.47
2023-03-02T13:21:10.804Z,101503.75
2023-03-02T13:23:50.940Z,101494.19
2023-03-02T13:26:31.681Z,101488.16
2023-03-02T13:29:04.748Z,101495.06
2023-03-02T13:31:37.639Z,101488.50
2023-03-02T13:34:05.688Z,101479.50
2023-03-02T13:36:38.744Z,101482.03
2023-03-02T13:39:07.826Z,101491.44
2023-03-02T13:41:41.642Z,101497.53
2023-03-02T13:44:19.877Z,101496.66
2023-03-02T13:46:47.676Z,101487.44
2023-03-02T13:49:32.738Z,101483.63
2023-03-02T13:52:08.338Z,101471.34
2023-03-02T13:54:38.333Z,101487.00
2023-03-02T13:57:06.168Z,101475.34
2023-03-02T13:59:37.257Z,101484.16
2023-03-02T14:02:19.941Z,101478.47
2023-03-02T14:04:47.808Z,101482.13
2023-03-02T14:07:20.845Z,101489.03
2023-03-02T14:09:48.974Z,101475.25
2023-03-02T14:12:29.740Z,101489.84
2023-03-02T14:15:01.355Z,101474.63
2023-03-02T14:17:29.585Z,101476.56
2023-03-02T14:19:57.591Z,101482.13
2023-03-02T14:22:26.681Z,101473.59
2023-03-02T14:24:55.930Z,101490.41
2023-03-02T14:27:24.836Z,101483.63
2023-03-02T14:29:52.678Z,101480.47
2023-03-02T14:32:22.135Z,101477.66
2023-03-02T14:34:49.984Z,101488.00
2023-03-02T14:37:18.859Z,101483.84
2023-03-02T14:39:48.516Z,101485.13
2023-03-02T14:42:17.395Z,101483.22
2023-03-02T14:44:50.189Z,101481.25
2023-03-02T14:47:19.750Z,101481.81
2023-03-02T14:49:49.019Z,101490.59
2023-03-02T14:52:34.959Z,101498.31
2023-03-02T14:55:07.915Z,101496.84
2023-03-02T14:57:38.740Z,101498.53
2023-03-02T15:00:07.603Z,101493.75
2023-03-02T15:02:36.058Z,101489.47
2023-03-02T15:05:14.699Z,101488.66
2023-03-02T15:07:44.355Z,101495.09
2023-03-02T15:10:17.502Z,101494.41
2023-03-02T15:12:45.710Z,101489.53
2023-03-02T15:15:16.736Z,101502.53
2023-03-02T15:17:45.023Z,101497.25
2023-03-02T15:20:17.356Z,101498.69
2023-03-02T15:22:48.055Z,101502.41
2023-03-02T15:25:17.532Z,101495.97
2023-03-02T15:27:47.491Z,101502.94
2023-03-02T15:30:17.950Z,101498.31
2023-03-02T15:32:45.987Z,101501.91
2023-03-02T15:35:14.678Z,101504.88
2023-03-02T15:37:45.716Z,101502.28
2023-03-02T15:40:15.476Z,101505.56
2023-03-02T15:42:43.986Z,101508.09
2023-03-02T15:45:13.855Z,101516.19
2023-03-02T15:47:42.998Z,101513.06
2023-03-02T15:50:13.284Z,101510.59
2023-03-02T15:52:42.676Z,101517.41
2023-03-02T15:55:11.287Z,101524.69
2023-03-02T15:57:40.389Z,101524.38
2023-03-02T16:00:13.792Z,101528.28
2023-03-02T16:02:43.750Z,101536.31
2023-03-02T16:05:15.451Z,101532.69
2023-03-02T16:07:45.596Z,101530.13
2023-03-02T16:10:17.462Z,101530.69
2023-03-02T16:12:46.032Z,101532.84
2023-03-02T16:15:15.055Z,101531.28
2023-03-02T16:17:43.044Z,101535.88
2023-03-02T16:20:12.016Z,101530.63
2023-03-02T16:22:40.407Z,101536.16
2023-03-02T16:25:12.130Z,101543.41
2023-03-02T16:27:40.681Z,101543.53
2023-03-02T16:30:14.952Z,101546.59
2023-03-02T16:32:44.397Z,101543.66
2023-03-02T16:35:14.752Z,101544.88
2023-03-02T16:37:44.686Z,101548.66
2023-03-02T16:40:13.236Z,101560.56
2023-03-02T16:42:41.886Z,101549.13
2023-03-02T16:45:10.441Z,101543.50
2023-03-02T16:47:38.286Z,101555.28
2023-03-02T16:50:07.071Z,101548.28
2023-03-02T16:52:35.966Z,101549.56
2023-03-02T16:55:04.618Z,101554.94
2023-03-02T16:57:32.909Z,101549.28
2023-03-02T17:00:00.805Z,101551.66
2023-03-02T17:02:29.646Z,101558.00
2023-03-02T17:05:03.335Z,101543.66
2023-03-02T17:07:31.897Z,101551.00
2023-03-02T17:10:00.676Z,101550.03
2023-03-02T17:12:29.486Z,101546.97
2023-03-02T17:14:59.374Z,101546.47
2023-03-02T17:17:27.534Z,101551.50
2023-03-02T17:19:55.897Z,101544.16
2023-03-02T17:22:26.697Z,101538.38
2023-03-02T17:24:54.943Z,101542.41
2023-03-02T17:27:25.983Z,101539.00
2023-03-02T17:29:54.660Z,101536.25
2023-03-02T17:32:23.355Z,101537.97
2023-03-02T17:34:52.601Z,101540.81
2023-03-02T17:37:20.438Z,101534.31
2023-03-02T17:39:52.543Z,101533.81
2023-03-02T17:42:20.498Z,101533.19
2023-03-02T17:44:48.369Z,101535.53
2023-03-02T17:47:16.517Z,101531.72
2023-03-02T17:49:45.939Z,101530.88
2023-03-02T17:52:19.510Z,101528.41
2023-03-02T17:54:47.884Z,101528.41
2023-03-02T17:57:22.061Z,101537.00
2023-03-02T17:59:52.886Z,101532.84
2023-03-02T18:02:20.738Z,101538.09
2023-03-02T18:04:49.452Z,101537.47
2023-03-02T18:07:17.816Z,101544.59
2023-03-02T18:09:46.263Z,101545.34
2023-03-02T18:12:16.104Z,101536.03
2023-03-02T18:14:44.690Z,101542.53
2023-03-02T18:17:15.259Z,101541.03
2023-03-02T18:19:43.367Z,101536.25
2023-03-02T18:22:11.526Z,101536.25
2023-03-02T18:24:39.711Z,101547.78
2023-03-02T18:27:11.002Z,101545.56
2023-03-02T18:29:40.467Z,101551.75
2023-03-02T18:32:08.575Z,101545.38
2023-03-02T18:34:40.323Z,101546.34
2023-03-02T18:37:08.228Z,101544.13
2023-03-02T18:39:37.868Z,101542.03
2023-03-02T18:42:07.023Z,101544.88
2023-03-02T18:44:35.175Z,101547.09
2023-03-02T18:47:04.088Z,101543.63
2023-03-02T18:49:32.137Z,101542.41
2023-03-02T18:52:07.027Z,101540.34
2023-03-02T18:54:35.047Z,101538.75
2023-03-02T18:57:03.800Z,101543.06
2023-03-02T18:59:34.284Z,101542.19
2023-03-02T19:02:08.519Z,101536.69
2023-03-02T19:04:36.371Z,101534.06
2023-03-02T19:07:09.260Z,101538.59
2023-03-02T19:09:37.506Z,101540.09
2023-03-02T19:12:09.623Z,101535.28
2023-03-02T19:14:39.735Z,101533.81
2023-03-02T19:17:07.709Z,101543.63
2023-03-02T19:19:35.761Z,101544.59
2023-03-02T19:22:06.572Z,101550.88
2023-03-02T19:24:35.030Z,101536.03
2023-03-02T19:27:03.120Z,101536.78
2023-03-02T19:29:34.830Z,101537.75
2023-03-02T19:32:02.758Z,101530.41
2023-03-02T19:34:30.840Z,101532.09
2023-03-02T19:36:58.824Z,101535.16
2023-03-02T19:39:27.463Z,101530.38
2023-03-02T19:41:56.039Z,101527.13
2023-03-02T19:44:25.878Z,101534.72
2023-03-02T19:46:53.698Z,101534.69
2023-03-02T19:49:21.478Z,101533.69
2023-03-02T19:51:50.362Z,101532.75
2023-03-02T19:54:18.137Z,101528.88
2023-03-02T19:56:53.299Z,101520.75
2023-03-02T19:59:22.223Z,101526.38
2023-03-02T20:01:51.584Z,101521.22
2023-03-02T20:04:23.167Z,101524.81
2023-03-02T20:06:51.098Z,101530.22
2023-03-02T20:09:20.518Z,101521.66
2023-03-02T20:11:50.916Z,101510.91
2023-03-02T20:14:31.574Z,101502.28
2023-03-02T20:17:02.571Z,101507.19
2023-03-02T20:19:31.766Z,101508.41
2023-03-02T20:21:59.624Z,101507.66
2023-03-02T20:24:30.756Z,101497.47
2023-03-02T20:26:58.682Z,101506.69
2023-03-02T20:29:27.061Z,101505.00
2023-03-02T20:31:55.005Z,101500.22
2023-03-02T20:34:22.693Z,101491.97
2023-03-02T20:36:50.372Z,101485.38
2023-03-02T20:39:24.319Z,101476.97
2023-03-02T20:41:52.345Z,101483.69
2023-03-02T20:44:20.742Z,101476.41
2023-03-02T20:46:54.233Z,101465.13
2023-03-02T20:49:23.707Z,101472.72
2023-03-02T20:51:54.823Z,101467.75
2023-03-02T20:54:24.558Z,101467.75
2023-03-02T20:56:52.244Z,101466.09
2023-03-02T20:59:21.643Z,101466.16
2023-03-02T21:01:49.920Z,101468.13
2023-03-02T21:04:17.879Z,101459.81
2023-03-02T21:06:47.305Z,101462.28
2023-03-02T21:09:15.577Z,101455.81
2023-03-02T21:11:44.970Z,101458.81
2023-03-02T21:14:16.269Z,101448.47
2023-03-02T21:16:44.347Z,101452.00
2023-03-02T21:19:18.203Z,101452.63
2023-03-02T21:21:46.429Z,101447.00
2023-03-02T21:24:18.453Z,101441.84
2023-03-02T21:26:46.970Z,101451.66
2023-03-02T21:29:15.136Z,101442.94
2023-03-02T21:31:43.990Z,101434.19
2023-03-02T21:34:12.675Z,101436.66
2023-03-02T21:36:40.688Z,101425.66
2023-03-02T21:39:08.545Z,101432.38
2023-03-02T21:41:36.441Z,101431.72
2023-03-02T21:44:05.798Z,101430.91
2023-03-02T21:46:34.360Z,101426.25
2023-03-02T21:49:02.302Z,101423.44
2023-03-02T21:51:30.439Z,101436.88
2023-03-02T21:53:58.164Z,101423.66
2023-03-02T21:56:25.916Z,101427.44
2023-03-02T21:58:59.887Z,101421.44
2023-03-02T22:01:29.881Z,101421.22
2023-03-02T22:03:57.564Z,101419.13
2023-03-02T22:06:26.981Z,101410.16
2023-03-02T22:08:55.960Z,101412.50
2023-03-02T22:11:33.132Z,101404.06
2023-03-02T22:14:02.164Z,101411.78
2023-03-02T22:16:38.737Z,101404.28
2023-03-02T22:19:31.376Z,101399.84
2023-03-02T22:22:00.327Z,101399.53
2023-03-02T22:24:33.815Z,101395.00
2023-03-02T22:27:20.330Z,101392.19
2023-03-02T22:29:48.846Z,101393.00
2023-03-02T22:32:21.429Z,101387.72
2023-03-02T22:34:53.220Z,101387.13
2023-03-02T22:37:26.381Z,101379.81
2023-03-02T22:39:55.687Z,101377.59
2023-03-02T22:42:27.291Z,101376.13
2023-03-02T22:45:14.971Z,101373.44
2023-03-02T22:47:44.004Z,101377.44
2023-03-02T22:50:24.920Z,101374.75
2023-03-02T22:52:53.288Z,101374.59
2023-03-02T22:55:27.263Z,101375.13
2023-03-02T22:57:57.163Z,101374.47
2023-03-02T23:00:33.934Z,101379.22
2023-03-02T23:03:20.321Z,101369.31
2023-03-02T23:05:51.117Z,101373.75
2023-03-02T23:08:25.351Z,101374.84
2023-03-02T23:10:55.116Z,101375.63
2023-03-02T23:13:26.189Z,101359.06
2023-03-02T23:15:55.494Z,101358.97
2023-03-02T23:18:27.426Z,101352.47
2023-03-02T23:20:55.228Z,101353.31
2023-03-02T23:23:24.474Z,101357.50
2023-03-02T23:25:52.193Z,101349.66
2023-03-02T23:28:19.852Z,101341.72
2023-03-02T23:30:48.124Z,101341.31
2023-03-02T23:33:15.963Z,101350.19
2023-03-02T23:35:43.733Z,101348.28
2023-03-02T23:38:11.602Z,101338.84
2023-03-02T23:40:41.764Z,101343.06
2023-03-02T23:43:13.708Z,101337.25
2023-03-02T23:45:42.425Z,101335.72
2023-03-02T23:48:11.321Z,101334.63
2023-03-02T23:50:39.629Z,101332.81
2023-03-02T23:53:07.326Z,101330.13
2023-03-02T23:55:35.329Z,101317.91
2023-03-02T23:58:02.989Z,101314.50
